createdAt,value
2023-02-28T00:01:30.363Z,2.84
2023-02-28T00:03:58.447Z,2.93
2023-02-28T00:06:26.069Z,2.82
2023-02-28T00:08:53.492Z,2.87
2023-02-28T00:11:22.892Z,2.80
2023-02-28T00:13:50.418Z,2.65
2023-02-28T00:16:20.874Z,2.62
2023-02-28T00:18:48.923Z,2.66
2023-02-28T00:21:18.140Z,2.77
2023-02-28T00:23:45.792Z,2.62
2023-02-28T00:26:13.392Z,2.66
2023-02-28T00:28:44.521Z,2.70
2023-02-28T00:31:12.116Z,2.60
2023-02-28T00:33:39.338Z,2.54
2023-02-28T00:36:09.379Z,2.45
2023-02-28T00:38:40.856Z,2.48
2023-02-28T00:41:09.289Z,2.53
2023-02-28T00:43:38.611Z,2.52
2023-02-28T00:46:06.488Z,2.52
2023-02-28T00:48:34.024Z,2.42
2023-02-28T00:51:01.529Z,2.31
2023-02-28T00:53:29.795Z,2.36
2023-02-28T00:55:58.645Z,2.25
2023-02-28T00:58:27.542Z,2.35
2023-02-28T01:00:55.218Z,2.35
2023-02-28T01:03:23.764Z,2.29
2023-02-28T01:05:51.603Z,2.27
2023-02-28T01:08:19.067Z,2.25
2023-02-28T01:10:46.513Z,2.22
2023-02-28T01:13:14.274Z,2.30
2023-02-28T01:15:46.520Z,2.20
2023-02-28T01:18:14.010Z,2.24
2023-02-28T01:20:41.450Z,2.08
2023-02-28T01:23:10.417Z,2.02
2023-02-28T01:25:38.434Z,2.05
2023-02-28T01:28:07.216Z,2.08
2023-02-28T01:30:35.385Z,2.11
2023-02-28T01:33:03.290Z,2.11
2023-02-28T01:35:34.870Z,2.02
2023-02-28T01:38:20.402Z,2.10
2023-02-28T01:40:49.096Z,1.96
2023-02-28T01:43:26.653Z,2.06
2023-02-28T01:45:57.574Z,2.10
2023-02-28T01:48:32.633Z,2.00
2023-02-28T01:51:06.412Z,2.06
2023-02-28T01:53:38.600Z,1.97
2023-02-28T01:56:08.308Z,1.91
2023-02-28T01:58:38.092Z,1.96
2023-02-28T02:01:06.241Z,1.78
2023-02-28T02:03:37.032Z,1.86
2023-02-28T02:06:05.123Z,2.04
2023-02-28T02:08:32.586Z,1.93
2023-02-28T02:11:01.211Z,1.98
2023-02-28T02:13:56.628Z,1.91
2023-02-28T02:16:36.638Z,1.95
2023-02-28T02:19:25.537Z,2.01
2023-02-28T02:22:22.357Z,1.89
2023-02-28T02:25:05.739Z,1.70
2023-02-28T02:28:13.934Z,1.89
2023-02-28T02:30:50.241Z,1.79
2023-02-28T02:33:38.417Z,1.83
2023-02-28T02:36:39.628Z,1.86
2023-02-28T02:39:24.845Z,1.79
2023-02-28T02:41:54.920Z,1.80
2023-02-28T02:44:27.326Z,1.78
2023-02-28T02:47:02.249Z,1.94
2023-02-28T02:49:33.444Z,1.84
2023-02-28T02:52:11.252Z,1.77
2023-02-28T02:54:43.660Z,1.70
2023-02-28T02:57:18.860Z,1.70
2023-02-28T02:59:46.897Z,1.69
2023-02-28T03:02:18.726Z,1.72
2023-02-28T03:04:56.925Z,1.63
2023-02-28T03:07:24.639Z,1.66
2023-02-28T03:09:57.761Z,1.62
2023-02-28T03:12:35.365Z,1.54
2023-02-28T03:15:20.729Z,1.50
2023-02-28T03:17:53.806Z,1.41
2023-02-28T03:20:39.683Z,1.45
2023-02-28T03:23:25.073Z,1.40
2023-02-28T03:26:08.974Z,1.47
2023-02-28T03:28:50.493Z,1.55
2023-02-28T03:31:30.642Z,1.59
2023-02-28T03:34:02.966Z,1.61
2023-02-28T03:36:33.526Z,1.47
2023-02-28T03:39:06.535Z,1.48
2023-02-28T03:41:40.126Z,1.46
2023-02-28T03:44:17.756Z,1.40
2023-02-28T03:46:54.393Z,1.36
2023-02-28T03:49:26.303Z,1.29
2023-02-28T03:51:57.459Z,1.18
2023-02-28T03:54:31.734Z,1.32
2023-02-28T03:57:24.695Z,1.20
2023-02-28T03:59:58.956Z,1.15
2023-02-28T04:02:26.800Z,1.27
2023-02-28T04:04:54.930Z,1.35
2023-02-28T04:07:22.577Z,1.44
2023-02-28T04:09:50.090Z,1.35
2023-02-28T04:12:17.789Z,1.17
2023-02-28T04:14:45.250Z,1.06
2023-02-28T04:17:12.854Z,1.13
2023-02-28T04:19:40.247Z,1.06
2023-02-28T04:22:09.563Z,1.01
2023-02-28T04:24:37.240Z,1.01
2023-02-28T04:27:05.109Z,0.87
2023-02-28T04:29:36.032Z,0.91
2023-02-28T04:32:04.437Z,0.89
2023-02-28T04:34:33.067Z,0.97
2023-02-28T04:37:17.006Z,0.97
2023-02-28T04:39:45.057Z,1.12
2023-02-28T04:42:13.628Z,1.14
2023-02-28T04:44:41.082Z,1.11
2023-02-28T04:47:08.511Z,0.93
2023-02-28T04:49:35.886Z,0.97
2023-02-28T04:52:03.214Z,0.91
2023-02-28T04:54:30.995Z,0.97
2023-02-28T04:56:58.552Z,0.86
2023-02-28T04:59:26.121Z,0.89
2023-02-28T05:01:53.579Z,0.85
2023-02-28T05:04:20.998Z,0.72
2023-02-28T05:06:48.400Z,0.78
2023-02-28T05:09:15.805Z,0.89
2023-02-28T05:11:43.076Z,0.78
2023-02-28T05:14:12.587Z,0.79
2023-02-28T05:16:40.492Z,0.87
2023-02-28T05:19:08.081Z,0.77
2023-02-28T05:21:53.056Z,0.73
2023-02-28T05:24:23.870Z,0.70
2023-02-28T05:26:54.207Z,0.66
2023-02-28T05:29:22.352Z,0.74
2023-02-28T05:31:50.000Z,0.63
2023-02-28T05:34:17.524Z,0.69
2023-02-28T05:36:45.078Z,0.72
2023-02-28T05:39:14.205Z,0.70
2023-02-28T05:41:43.819Z,0.65
2023-02-28T05:44:12.132Z,0.65
2023-02-28T05:46:39.708Z,0.65
2023-02-28T05:49:07.101Z,0.58
2023-02-28T05:51:37.336Z,0.63
2023-02-28T05:54:05.117Z,0.56
2023-02-28T05:56:33.118Z,0.63
2023-02-28T05:59:00.555Z,0.58
2023-02-28T06:01:38.565Z,0.54
2023-02-28T06:04:22.327Z,0.69
2023-02-28T06:06:58.628Z,0.62
2023-02-28T06:09:26.302Z,0.53
2023-02-28T06:11:53.856Z,0.56
2023-02-28T06:14:21.812Z,0.39
2023-02-28T06:16:49.334Z,0.46
2023-02-28T06:19:17.428Z,0.34
2023-02-28T06:21:45.482Z,0.35
2023-02-28T06:24:12.893Z,0.42
2023-02-28T06:26:40.249Z,0.44
2023-02-28T06:29:08.390Z,0.56
2023-02-28T06:31:36.105Z,0.56
2023-02-28T06:34:03.788Z,0.53
2023-02-28T06:36:31.800Z,0.60
2023-02-28T06:38:59.243Z,0.59
2023-02-28T06:41:27.950Z,0.58
2023-02-28T06:43:56.164Z,0.57
2023-02-28T06:46:24.516Z,0.45
2023-02-28T06:48:52.002Z,0.45
2023-02-28T06:51:25.438Z,0.54
2023-02-28T06:53:52.999Z,0.53
2023-02-28T06:56:24.607Z,0.53
2023-02-28T06:58:57.248Z,0.46
2023-02-28T07:01:25.441Z,0.45
2023-02-28T07:03:54.316Z,0.49
2023-02-28T07:06:26.115Z,0.84
2023-02-28T07:08:54.913Z,1.34
2023-02-28T07:11:26.694Z,1.79
2023-02-28T07:13:58.325Z,1.95
2023-02-28T07:16:26.796Z,2.47
2023-02-28T07:18:55.227Z,2.93
2023-02-28T07:21:23.251Z,3.17
2023-02-28T07:23:51.203Z,3.34
2023-02-28T07:26:20.724Z,3.55
2023-02-28T07:28:49.623Z,3.91
2023-02-28T07:31:18.662Z,4.40
2023-02-28T07:33:46.170Z,4.92
2023-02-28T07:36:16.493Z,5.36
2023-02-28T07:38:49.391Z,5.51
2023-02-28T07:41:18.033Z,6.04
2023-02-28T07:43:45.970Z,6.35
2023-02-28T07:46:18.491Z,6.52
2023-02-28T07:48:46.133Z,6.73
2023-02-28T07:51:13.678Z,6.75
2023-02-28T07:53:41.091Z,6.66
2023-02-28T07:56:08.742Z,6.71
2023-02-28T07:58:36.384Z,6.82
2023-02-28T08:01:11.758Z,6.79
2023-02-28T08:03:40.478Z,6.79
2023-02-28T08:06:15.794Z,7.11
2023-02-28T08:08:43.542Z,7.65
2023-02-28T08:11:11.089Z,8.23
2023-02-28T08:13:38.740Z,8.83
2023-02-28T08:16:06.743Z,9.27
2023-02-28T08:18:34.708Z,9.55
2023-02-28T08:21:08.173Z,9.65
2023-02-28T08:23:36.298Z,9.55
2023-02-28T08:26:04.472Z,9.77
2023-02-28T08:28:31.982Z,10.23
2023-02-28T08:30:59.374Z,10.77
2023-02-28T08:33:29.034Z,11.28
2023-02-28T08:35:57.549Z,11.56
2023-02-28T08:38:25.699Z,11.80
2023-02-28T08:41:01.418Z,12.06
2023-02-28T08:43:30.095Z,12.19
2023-02-28T08:46:00.758Z,12.27
2023-02-28T08:48:30.687Z,12.38
2023-02-28T08:51:07.829Z,12.24
2023-02-28T08:53:40.622Z,11.93
2023-02-28T08:56:13.677Z,11.34
2023-02-28T08:58:41.521Z,11.32
2023-02-28T09:01:16.173Z,11.51
2023-02-28T09:03:44.943Z,11.85
2023-02-28T09:06:12.709Z,11.94
2023-02-28T09:08:40.746Z,11.82
2023-02-28T09:11:09.201Z,11.63
2023-02-28T09:13:37.354Z,11.42
2023-02-28T09:16:07.683Z,11.55
2023-02-28T09:18:38.584Z,11.85
2023-02-28T09:21:07.972Z,12.14
2023-02-28T09:23:36.191Z,12.03
2023-02-28T09:26:03.955Z,12.06
2023-02-28T09:28:31.386Z,12.10
2023-02-28T09:31:00.076Z,12.24
2023-02-28T09:33:27.730Z,12.60
2023-02-28T09:36:04.990Z,12.22
2023-02-28T09:38:32.970Z,12.24
2023-02-28T09:41:04.185Z,12.13
2023-02-28T09:43:38.853Z,12.23
2023-02-28T09:46:12.637Z,12.24
2023-02-28T09:48:48.132Z,11.86
2023-02-28T09:51:32.927Z,11.62
2023-02-28T09:54:02.222Z,11.46
2023-02-28T09:56:42.420Z,11.73
2023-02-28T09:59:24.007Z,11.80
2023-02-28T10:02:05.578Z,11.86
2023-02-28T10:04:55.470Z,11.40
2023-02-28T10:07:41.101Z,11.37
2023-02-28T10:10:32.500Z,11.44
2023-02-28T10:13:06.536Z,11.36
2023-02-28T10:15:36.850Z,11.25
2023-02-28T10:18:16.780Z,10.53
2023-02-28T10:20:46.722Z,10.31
2023-02-28T10:23:37.043Z,10.40
2023-02-28T10:26:24.983Z,10.70
2023-02-28T10:28:54.259Z,10.89
2023-02-28T10:31:23.070Z,10.77
2023-02-28T10:33:51.578Z,10.64
2023-02-28T10:36:20.122Z,10.32
2023-02-28T10:38:49.276Z,9.59
2023-02-28T10:41:43.110Z,9.31
2023-02-28T10:44:28.408Z,8.89
2023-02-28T10:46:57.661Z,8.69
2023-02-28T10:49:28.349Z,8.81
2023-02-28T10:51:59.120Z,8.53
2023-02-28T10:54:32.725Z,8.66
2023-02-28T10:57:23.288Z,8.47
2023-02-28T11:00:07.368Z,8.53
2023-02-28T11:02:37.156Z,8.40
2023-02-28T11:05:27.918Z,8.47
2023-02-28T11:08:04.327Z,8.89
2023-02-28T11:10:36.219Z,8.88
2023-02-28T11:13:04.882Z,8.75
2023-02-28T11:15:35.426Z,8.51
2023-02-28T11:18:23.923Z,7.66
2023-02-28T11:20:55.276Z,7.76
2023-02-28T11:23:28.769Z,7.89
2023-02-28T11:26:00.839Z,8.25
2023-02-28T11:28:35.726Z,8.47
2023-02-28T11:31:07.784Z,8.40
2023-02-28T11:33:52.245Z,8.24
2023-02-28T11:36:25.800Z,8.48
2023-02-28T11:39:02.939Z,8.18
2023-02-28T11:41:44.319Z,8.44
2023-02-28T11:44:36.562Z,8.65
2023-02-28T11:47:21.466Z,8.62
2023-02-28T11:50:20.761Z,8.54
2023-02-28T11:53:17.980Z,8.53
2023-02-28T11:56:12.443Z,8.14
2023-02-28T11:58:55.199Z,8.14
2023-02-28T12:01:32.512Z,8.18
2023-02-28T12:04:11.637Z,8.17
2023-02-28T12:07:04.568Z,8.37
2023-02-28T12:09:45.206Z,8.29
2023-02-28T12:12:33.545Z,8.33
2023-02-28T12:15:33.717Z,8.51
2023-02-28T12:18:28.043Z,8.71
2023-02-28T12:21:06.952Z,8.42
2023-02-28T12:23:52.676Z,8.49
2023-02-28T12:26:29.746Z,8.53
2023-02-28T12:29:12.994Z,8.85
2023-02-28T12:31:46.357Z,8.61
2023-02-28T12:34:21.680Z,8.23
2023-02-28T12:36:51.740Z,8.48
2023-02-28T12:39:36.458Z,8.38
2023-02-28T12:42:13.146Z,8.50
2023-02-28T12:45:00.114Z,8.80
2023-02-28T12:47:27.945Z,8.99
2023-02-28T12:50:06.222Z,8.95
2023-02-28T12:52:40.717Z,8.86
2023-02-28T12:55:26.386Z,8.90
2023-02-28T12:58:18.550Z,9.19
2023-02-28T13:01:29.287Z,8.99
2023-02-28T13:04:09.336Z,8.55
2023-02-28T13:07:02.253Z,8.53
2023-02-28T13:09:30.749Z,8.69
2023-02-28T13:11:59.529Z,8.70
2023-02-28T13:14:34.044Z,8.63
2023-02-28T13:17:10.443Z,8.49
2023-02-28T13:19:41.812Z,8.25
2023-02-28T13:22:27.590Z,8.12
2023-02-28T13:24:57.005Z,8.27
2023-02-28T13:27:41.533Z,8.15
2023-02-28T13:30:46.534Z,8.21
2023-02-28T13:33:36.427Z,8.67
2023-02-28T13:36:19.471Z,8.81
2023-02-28T13:38:54.894Z,8.69
2023-02-28T13:41:37.481Z,8.55
2023-02-28T13:44:14.388Z,8.24
2023-02-28T13:46:50.817Z,7.90
2023-02-28T13:49:24.283Z,8.07
2023-02-28T13:52:24.302Z,8.24
2023-02-28T13:55:00.192Z,8.04
2023-02-28T13:57:36.875Z,7.78
2023-02-28T14:00:06.730Z,7.85
2023-02-28T14:03:03.979Z,7.99
2023-02-28T14:05:34.922Z,7.97
2023-02-28T14:08:14.819Z,7.79
2023-02-28T14:10:49.079Z,7.61
2023-02-28T14:13:28.594Z,7.32
2023-02-28T14:16:04.172Z,7.11
2023-02-28T14:18:35.251Z,6.86
2023-02-28T14:21:08.373Z,6.84
2023-02-28T14:23:50.256Z,7.07
2023-02-28T14:26:38.814Z,7.19
2023-02-28T14:29:28.400Z,7.33
2023-02-28T14:32:14.532Z,7.18
2023-02-28T14:34:45.196Z,7.20
2023-02-28T14:37:21.317Z,7.08
2023-02-28T14:39:49.950Z,6.98
2023-02-28T14:42:35.384Z,6.97
2023-02-28T14:45:03.685Z,6.99
2023-02-28T14:47:36.446Z,6.84
2023-02-28T14:50:06.099Z,6.85
2023-02-28T14:52:34.230Z,6.76
2023-02-28T14:55:11.525Z,6.66
2023-02-28T14:57:45.134Z,6.67
2023-02-28T15:00:32.967Z,6.68
2023-02-28T15:03:02.874Z,6.57
2023-02-28T15:05:35.458Z,6.62
2023-02-28T15:08:12.872Z,6.80
2023-02-28T15:10:45.312Z,6.92
2023-02-28T15:13:16.306Z,6.83
2023-02-28T15:16:03.914Z,6.96
2023-02-28T15:18:46.945Z,7.03
2023-02-28T15:21:19.146Z,7.13
2023-02-28T15:23:52.277Z,7.11
2023-02-28T15:26:24.236Z,6.99
2023-02-28T15:29:02.659Z,6.84
2023-02-28T15:31:55.917Z,6.74
2023-02-28T15:34:45.177Z,6.25
2023-02-28T15:37:32.264Z,6.07
2023-02-28T15:40:31.966Z,5.88
2023-02-28T15:43:15.169Z,5.78
2023-02-28T15:45:48.159Z,5.85
2023-02-28T15:48:19.791Z,5.93
2023-02-28T15:51:02.325Z,5.90
2023-02-28T15:53:33.772Z,5.78
2023-02-28T15:56:04.395Z,5.69
2023-02-28T15:58:33.646Z,5.61
2023-02-28T16:01:20.202Z,5.30
2023-02-28T16:03:50.928Z,5.45
2023-02-28T16:06:18.272Z,5.45
2023-02-28T16:08:46.015Z,5.53
2023-02-28T16:11:13.487Z,5.59
2023-02-28T16:13:40.839Z,5.46
2023-02-28T16:16:08.267Z,5.44
2023-02-28T16:18:35.689Z,5.41
2023-02-28T16:21:03.108Z,5.50
2023-02-28T16:23:30.489Z,5.41
2023-02-28T16:25:57.896Z,5.43
2023-02-28T16:28:31.015Z,5.41
2023-02-28T16:30:58.474Z,5.48
2023-02-28T16:33:25.845Z,5.46
2023-02-28T16:35:53.601Z,5.41
2023-02-28T16:38:22.692Z,5.43
2023-02-28T16:40:51.870Z,5.49
2023-02-28T16:43:23.657Z,5.47
2023-02-28T16:45:56.661Z,5.41
2023-02-28T16:48:24.316Z,5.32
2023-02-28T16:50:52.532Z,5.32
2023-02-28T16:53:20.042Z,5.38
2023-02-28T16:55:48.363Z,5.23
2023-02-28T16:58:17.637Z,5.42
2023-02-28T17:00:45.217Z,5.53
2023-02-28T17:03:34.339Z,5.68
2023-02-28T17:06:02.205Z,5.73
2023-02-28T17:08:30.929Z,5.75
2023-02-28T17:10:58.960Z,5.80
2023-02-28T17:13:26.499Z,5.76
2023-02-28T17:15:54.196Z,5.91
2023-02-28T17:18:24.539Z,5.97
2023-02-28T17:20:52.114Z,5.97
2023-02-28T17:23:19.443Z,6.02
2023-02-28T17:25:57.157Z,6.00
2023-02-28T17:28:26.183Z,6.02
2023-02-28T17:30:53.721Z,5.95
2023-02-28T17:33:21.299Z,5.87
2023-02-28T17:35:49.232Z,5.93
2023-02-28T17:38:19.755Z,5.89
2023-02-28T17:40:47.236Z,5.98
2023-02-28T17:43:18.611Z,6.15
2023-02-28T17:45:46.086Z,6.09
2023-02-28T17:48:13.861Z,6.23
2023-02-28T17:50:41.551Z,6.39
2023-02-28T17:53:09.111Z,6.43
2023-02-28T17:55:37.143Z,6.27
2023-02-28T17:58:04.911Z,6.27
2023-02-28T18:00:34.618Z,6.23
2023-02-28T18:03:02.222Z,6.17
2023-02-28T18:05:29.968Z,5.98
2023-02-28T18:07:58.048Z,6.07
2023-02-28T18:10:25.770Z,6.00
2023-02-28T18:12:53.352Z,5.98
2023-02-28T18:15:22.963Z,5.96
2023-02-28T18:17:50.868Z,6.08
2023-02-28T18:20:19.117Z,6.15
2023-02-28T18:22:47.667Z,6.04
2023-02-28T18:25:17.123Z,6.01
2023-02-28T18:27:54.321Z,6.10
2023-02-28T18:30:22.601Z,6.19
2023-02-28T18:32:50.228Z,6.25
2023-02-28T18:35:34.662Z,6.32
2023-02-28T18:38:06.670Z,6.20
2023-02-28T18:40:34.193Z,6.19
2023-02-28T18:43:02.268Z,6.22
2023-02-28T18:45:30.126Z,6.26
2023-02-28T18:47:57.739Z,6.25
2023-02-28T18:50:25.220Z,6.24
2023-02-28T18:52:52.540Z,6.30
2023-02-28T18:55:20.107Z,6.35
2023-02-28T18:57:48.102Z,6.35
2023-02-28T19:00:19.791Z,6.37
2023-02-28T19:02:47.462Z,6.52
2023-02-28T19:05:14.953Z,6.33
2023-02-28T19:07:42.547Z,5.59
2023-02-28T19:10:12.105Z,4.80
2023-02-28T19:12:42.450Z,4.13
2023-02-28T19:15:10.717Z,3.45
2023-02-28T19:17:38.614Z,3.24
2023-02-28T19:20:07.467Z,3.13
2023-02-28T19:22:35.132Z,2.96
2023-02-28T19:25:04.503Z,2.74
2023-02-28T19:27:32.362Z,2.70
2023-02-28T19:29:59.866Z,2.70
2023-02-28T19:32:27.883Z,2.67
2023-02-28T19:34:55.550Z,2.60
2023-02-28T19:37:23.317Z,2.73
2023-02-28T19:39:50.675Z,2.65
2023-02-28T19:42:18.511Z,2.62
2023-02-28T19:44:46.014Z,2.67
2023-02-28T19:47:14.286Z,2.79
2023-02-28T19:49:41.894Z,2.85
2023-02-28T19:52:13.336Z,2.81
2023-02-28T19:54:42.983Z,2.75
2023-02-28T19:57:10.265Z,2.78
2023-02-28T19:59:39.618Z,2.80
2023-02-28T20:02:14.658Z,3.16
2023-02-28T20:04:42.337Z,3.12
2023-02-28T20:07:09.840Z,3.12
2023-02-28T20:09:37.297Z,3.21
2023-02-28T20:12:07.127Z,3.29
2023-02-28T20:14:37.307Z,3.36
2023-02-28T20:17:04.883Z,3.33
2023-02-28T20:19:32.415Z,3.40
2023-02-28T20:22:01.032Z,3.45
2023-02-28T20:24:29.724Z,3.42
2023-02-28T20:26:57.691Z,3.61
2023-02-28T20:29:25.519Z,3.59
2023-02-28T20:31:52.938Z,3.53
2023-02-28T20:34:20.400Z,3.55
2023-02-28T20:36:47.832Z,3.45
2023-02-28T20:39:15.371Z,3.45
2023-02-28T20:41:42.715Z,3.50
2023-02-28T20:44:12.516Z,3.37
2023-02-28T20:46:41.496Z,3.34
2023-02-28T20:49:10.018Z,3.32
2023-02-28T20:51:40.141Z,3.21
2023-02-28T20:54:09.289Z,3.26
2023-02-28T20:56:37.466Z,3.62
2023-02-28T20:59:05.672Z,3.62
2023-02-28T21:01:33.680Z,3.41
2023-02-28T21:04:04.045Z,3.52
2023-02-28T21:06:35.108Z,3.48
2023-02-28T21:09:09.041Z,3.55
2023-02-28T21:11:38.654Z,3.47
2023-02-28T21:14:09.651Z,3.37
2023-02-28T21:16:38.063Z,3.08
2023-02-28T21:19:05.821Z,3.15
2023-02-28T21:21:39.790Z,3.14
2023-02-28T21:24:07.798Z,3.02
2023-02-28T21:26:35.413Z,2.87
2023-02-28T21:29:03.424Z,2.93
2023-02-28T21:31:33.567Z,2.84
2023-02-28T21:34:03.193Z,2.83
2023-02-28T21:36:37.151Z,2.72
2023-02-28T21:39:12.396Z,2.75
2023-02-28T21:41:41.740Z,2.93
2023-02-28T21:44:18.220Z,2.71
2023-02-28T21:46:48.966Z,2.77
2023-02-28T21:49:17.200Z,2.69
2023-02-28T21:51:44.993Z,2.70
2023-02-28T21:54:12.843Z,2.63
2023-02-28T21:56:40.789Z,2.61
2023-02-28T21:59:09.798Z,2.65
2023-02-28T22:01:41.247Z,2.52
2023-02-28T22:04:11.075Z,2.46
2023-02-28T22:06:41.362Z,2.56
2023-02-28T22:09:10.272Z,2.50
2023-02-28T22:11:38.770Z,2.41
2023-02-28T22:14:07.702Z,2.52
2023-02-28T22:16:50.346Z,2.59
2023-02-28T22:19:20.441Z,2.52
2023-02-28T22:21:48.564Z,2.55
2023-02-28T22:24:18.102Z,2.64
2023-02-28T22:26:45.672Z,2.73
2023-02-28T22:29:13.023Z,2.62
2023-02-28T22:31:40.267Z,2.50
2023-02-28T22:34:09.631Z,2.57
2023-02-28T22:36:37.635Z,2.36
2023-02-28T22:39:05.743Z,2.46
2023-02-28T22:41:33.623Z,2.38
2023-02-28T22:44:03.941Z,2.49
2023-02-28T22:46:33.838Z,2.54
2023-02-28T22:49:03.254Z,2.59
2023-02-28T22:51:31.326Z,2.68
2023-02-28T22:53:58.954Z,2.51
2023-02-28T22:56:29.168Z,2.57
2023-02-28T22:58:58.684Z,2.53
2023-02-28T23:01:28.886Z,2.48
2023-02-28T23:03:56.890Z,2.53
2023-02-28T23:06:30.754Z,2.36
2023-02-28T23:09:01.408Z,2.44
2023-02-28T23:11:34.020Z,2.37
2023-02-28T23:14:02.624Z,2.32
2023-02-28T23:16:43.101Z,2.26
2023-02-28T23:19:15.381Z,2.22
2023-02-28T23:21:44.163Z,2.22
2023-02-28T23:24:13.531Z,2.18
2023-02-28T23:26:44.195Z,2.16
2023-02-28T23:29:13.776Z,2.13
2023-02-28T23:31:41.245Z,2.13
2023-02-28T23:34:08.690Z,2.16
2023-02-28T23:36:36.820Z,2.11
2023-02-28T23:39:04.343Z,2.11
2023-02-28T23:41:32.263Z,2.02
2023-02-28T23:43:59.697Z,2.03
2023-02-28T23:46:27.257Z,1.99
2023-02-28T23:48:54.752Z,1.99
2023-02-28T23:51:22.873Z,1.82
2023-02-28T23:53:52.255Z,2.01
2023-02-28T23:56:22.396Z,2.00
2023-02-28T23:58:50.660Z,1.99
